sensor_id;sensor_type;location;lat;lon;timestamp;temperature;humidity
3504;DHT22;1766;53.490;10.174;2023-08-21T00:00:07;25.90;55.90
3504;DHT22;1766;53.490;10.174;2023-08-21T00:02:10;25.90;56.10
3504;DHT22;1766;53.490;10.174;2023-08-21T00:04:14;25.90;55.70
3504;DHT22;1766;53.490;10.174;2023-08-21T00:06:18;25.90;56.20
3504;DHT22;1766;53.490;10.174;2023-08-21T00:08:23;25.80;55.90
3504;DHT22;1766;53.490;10.174;2023-08-21T00:10:25;25.80;56.20
3504;DHT22;1766;53.490;10.174;2023-08-21T00:12:27;25.70;55.80
3504;DHT22;1766;53.490;10.174;2023-08-21T00:14:29;25.70;55.70
3504;DHT22;1766;53.490;10.174;2023-08-21T00:16:31;25.70;55.70
3504;DHT22;1766;53.490;10.174;2023-08-21T00:18:33;25.60;55.80
3504;DHT22;1766;53.490;10.174;2023-08-21T00:20:35;25.60;55.90
3504;DHT22;1766;53.490;10.174;2023-08-21T00:22:39;25.60;56.30
3504;DHT22;1766;53.490;10.174;2023-08-21T00:24:43;25.50;56.20
3504;DHT22;1766;53.490;10.174;2023-08-21T00:26:45;25.50;56.20
3504;DHT22;1766;53.490;10.174;2023-08-21T00:28:49;25.50;56.00
3504;DHT22;1766;53.490;10.174;2023-08-21T00:30:52;25.50;56.30
3504;DHT22;1766;53.490;10.174;2023-08-21T00:33:01;24.40;55.70
3504;DHT22;1766;53.490;10.174;2023-08-21T00:35:04;25.40;56.10
3504;DHT22;1766;53.490;10.174;2023-08-21T00:37:06;25.40;55.60
3504;DHT22;1766;53.490;10.174;2023-08-21T00:39:08;25.30;55.90
3504;DHT22;1766;53.490;10.174;2023-08-21T00:41:10;25.30;55.90
3504;DHT22;1766;53.490;10.174;2023-08-21T00:43:13;25.30;56.30
3504;DHT22;1766;53.490;10.174;2023-08-21T00:45:15;25.30;56.20
3504;DHT22;1766;53.490;10.174;2023-08-21T00:47:17;25.30;56.30
3504;DHT22;1766;53.490;10.174;2023-08-21T00:49:20;25.20;56.60
3504;DHT22;1766;53.490;10.174;2023-08-21T00:51:22;25.20;56.20
3504;DHT22;1766;53.490;10.174;2023-08-21T00:53:26;25.20;56.80
3504;DHT22;1766;53.490;10.174;2023-08-21T00:55:28;25.20;56.10
3504;DHT22;1766;53.490;10.174;2023-08-21T00:57:29;25.10;56.20
3504;DHT22;1766;53.490;10.174;2023-08-21T00:59:31;25.10;55.80
3504;DHT22;1766;53.490;10.174;2023-08-21T01:01:33;25.10;56.00
3504;DHT22;1766;53.490;10.174;2023-08-21T01:03:36;25.10;56.80
3504;DHT22;1766;53.490;10.174;2023-08-21T01:05:39;25.00;56.50
3504;DHT22;1766;53.490;10.174;2023-08-21T01:07:47;25.00;56.30
3504;DHT22;1766;53.490;10.174;2023-08-21T01:10:00;25.00;56.90
3504;DHT22;1766;53.490;10.174;2023-08-21T01:12:09;25.00;56.90
3504;DHT22;1766;53.490;10.174;2023-08-21T01:14:24;25.00;57.00
3504;DHT22;1766;53.490;10.174;2023-08-21T01:16:29;25.00;57.10
3504;DHT22;1766;53.490;10.174;2023-08-21T01:18:32;24.80;56.90
3504;DHT22;1766;53.490;10.174;2023-08-21T01:20:35;24.90;57.20
3504;DHT22;1766;53.490;10.174;2023-08-21T01:22:39;24.90;57.20
3504;DHT22;1766;53.490;10.174;2023-08-21T01:24:43;24.80;57.10
3504;DHT22;1766;53.490;10.174;2023-08-21T01:26:45;24.90;57.30
3504;DHT22;1766;53.490;10.174;2023-08-21T01:28:47;24.80;56.80
3504;DHT22;1766;53.490;10.174;2023-08-21T01:30:52;24.90;56.90
3504;DHT22;1766;53.490;10.174;2023-08-21T01:33:00;24.80;57.30
3504;DHT22;1766;53.490;10.174;2023-08-21T01:35:07;24.80;57.30
3504;DHT22;1766;53.490;10.174;2023-08-21T01:37:11;24.80;57.20
3504;DHT22;1766;53.490;10.174;2023-08-21T01:39:13;24.80;56.90
3504;DHT22;1766;53.490;10.174;2023-08-21T01:41:16;24.90;57.20
3504;DHT22;1766;53.490;10.174;2023-08-21T01:43:18;24.70;56.80
3504;DHT22;1766;53.490;10.174;2023-08-21T01:45:21;24.80;56.70
3504;DHT22;1766;53.490;10.174;2023-08-21T01:47:23;24.70;57.10
3504;DHT22;1766;53.490;10.174;2023-08-21T01:49:25;24.70;56.90
3504;DHT22;1766;53.490;10.174;2023-08-21T01:51:27;24.70;57.10
3504;DHT22;1766;53.490;10.174;2023-08-21T01:53:29;24.60;57.00
3504;DHT22;1766;53.490;10.174;2023-08-21T01:55:31;24.60;57.20
3504;DHT22;1766;53.490;10.174;2023-08-21T01:57:34;24.60;57.10
3504;DHT22;1766;53.490;10.174;2023-08-21T01:59:36;24.50;57.50
3504;DHT22;1766;53.490;10.174;2023-08-21T02:01:38;24.50;56.60
3504;DHT22;1766;53.490;10.174;2023-08-21T02:03:40;24.50;56.90
3504;DHT22;1766;53.490;10.174;2023-08-21T02:05:42;24.50;57.30
3504;DHT22;1766;53.490;10.174;2023-08-21T02:09:46;24.50;57.50
3504;DHT22;1766;53.490;10.174;2023-08-21T02:11:48;24.40;57.00
3504;DHT22;1766;53.490;10.174;2023-08-21T02:13:52;24.40;57.10
3504;DHT22;1766;53.490;10.174;2023-08-21T02:15:54;24.30;57.10
3504;DHT22;1766;53.490;10.174;2023-08-21T02:17:55;24.30;57.00
3504;DHT22;1766;53.490;10.174;2023-08-21T02:19:57;24.30;57.00
3504;DHT22;1766;53.490;10.174;2023-08-21T02:21:59;24.20;57.10
3504;DHT22;1766;53.490;10.174;2023-08-21T02:24:01;24.20;57.00
3504;DHT22;1766;53.490;10.174;2023-08-21T02:26:03;23.80;56.90
3504;DHT22;1766;53.490;10.174;2023-08-21T02:28:05;24.10;57.10
3504;DHT22;1766;53.490;10.174;2023-08-21T02:30:09;24.10;57.10
3504;DHT22;1766;53.490;10.174;2023-08-21T02:32:11;24.00;57.60
3504;DHT22;1766;53.490;10.174;2023-08-21T02:34:12;24.10;57.10
3504;DHT22;1766;53.490;10.174;2023-08-21T02:36:14;24.10;57.20
3504;DHT22;1766;53.490;10.174;2023-08-21T02:38:16;24.10;57.20
3504;DHT22;1766;53.490;10.174;2023-08-21T02:40:19;24.10;57.20
3504;DHT22;1766;53.490;10.174;2023-08-21T02:42:20;24.10;56.60
3504;DHT22;1766;53.490;10.174;2023-08-21T02:44:22;23.90;56.50
3504;DHT22;1766;53.490;10.174;2023-08-21T02:46:26;22.80;56.00
3504;DHT22;1766;53.490;10.174;2023-08-21T02:48:28;24.10;57.20
3504;DHT22;1766;53.490;10.174;2023-08-21T02:50:30;24.00;57.20
3504;DHT22;1766;53.490;10.174;2023-08-21T02:52:32;24.00;57.80
3504;DHT22;1766;53.490;10.174;2023-08-21T02:54:35;23.40;57.10
3504;DHT22;1766;53.490;10.174;2023-08-21T02:56:37;23.90;57.10
3504;DHT22;1766;53.490;10.174;2023-08-21T02:58:39;23.90;57.40
3504;DHT22;1766;53.490;10.174;2023-08-21T03:00:41;23.90;57.50
3504;DHT22;1766;53.490;10.174;2023-08-21T03:02:44;23.90;57.20
3504;DHT22;1766;53.490;10.174;2023-08-21T03:04:47;23.80;57.60
3504;DHT22;1766;53.490;10.174;2023-08-21T03:06:51;23.70;57.60
3504;DHT22;1766;53.490;10.174;2023-08-21T03:08:53;23.80;57.50
3504;DHT22;1766;53.490;10.174;2023-08-21T03:10:56;23.70;57.40
3504;DHT22;1766;53.490;10.174;2023-08-21T03:12:59;23.70;57.70
3504;DHT22;1766;53.490;10.174;2023-08-21T03:15:02;23.80;57.60
3504;DHT22;1766;53.490;10.174;2023-08-21T03:17:05;23.70;57.70
3504;DHT22;1766;53.490;10.174;2023-08-21T03:19:08;23.70;57.60
3504;DHT22;1766;53.490;10.174;2023-08-21T03:21:10;23.70;57.10
3504;DHT22;1766;53.490;10.174;2023-08-21T03:23:12;23.70;57.40
3504;DHT22;1766;53.490;10.174;2023-08-21T03:25:15;23.60;57.40
3504;DHT22;1766;53.490;10.174;2023-08-21T03:27:18;23.60;57.60
3504;DHT22;1766;53.490;10.174;2023-08-21T03:29:20;23.60;57.80
3504;DHT22;1766;53.490;10.174;2023-08-21T03:31:22;23.60;57.60
3504;DHT22;1766;53.490;10.174;2023-08-21T03:33:25;23.50;57.40
3504;DHT22;1766;53.490;10.174;2023-08-21T03:35:28;23.60;57.50
3504;DHT22;1766;53.490;10.174;2023-08-21T03:37:31;23.50;57.50
3504;DHT22;1766;53.490;10.174;2023-08-21T03:39:33;23.50;57.40
3504;DHT22;1766;53.490;10.174;2023-08-21T03:41:35;23.50;57.20
3504;DHT22;1766;53.490;10.174;2023-08-21T03:43:37;23.50;57.40
3504;DHT22;1766;53.490;10.174;2023-08-21T03:45:41;23.50;57.50
3504;DHT22;1766;53.490;10.174;2023-08-21T03:47:43;23.40;57.30
3504;DHT22;1766;53.490;10.174;2023-08-21T03:49:45;23.40;57.40
3504;DHT22;1766;53.490;10.174;2023-08-21T03:51:50;23.40;57.30
3504;DHT22;1766;53.490;10.174;2023-08-21T03:53:52;23.40;57.40
3504;DHT22;1766;53.490;10.174;2023-08-21T03:55:56;23.30;57.60
3504;DHT22;1766;53.490;10.174;2023-08-21T03:57:59;23.30;57.60
3504;DHT22;1766;53.490;10.174;2023-08-21T04:00:04;23.30;57.90
3504;DHT22;1766;53.490;10.174;2023-08-21T04:02:08;23.30;57.90
3504;DHT22;1766;53.490;10.174;2023-08-21T04:04:11;23.30;57.40
3504;DHT22;1766;53.490;10.174;2023-08-21T04:06:13;23.30;57.50
3504;DHT22;1766;53.490;10.174;2023-08-21T04:08:16;23.30;57.40
3504;DHT22;1766;53.490;10.174;2023-08-21T04:10:18;23.30;57.50
3504;DHT22;1766;53.490;10.174;2023-08-21T04:12:20;23.30;57.40
3504;DHT22;1766;53.490;10.174;2023-08-21T04:14:22;23.20;57.50
3504;DHT22;1766;53.490;10.174;2023-08-21T04:16:24;23.20;57.50
3504;DHT22;1766;53.490;10.174;2023-08-21T04:18:27;23.10;57.50
3504;DHT22;1766;53.490;10.174;2023-08-21T04:20:29;23.20;57.40
3504;DHT22;1766;53.490;10.174;2023-08-21T04:22:32;23.20;57.60
3504;DHT22;1766;53.490;10.174;2023-08-21T04:24:35;23.20;57.50
3504;DHT22;1766;53.490;10.174;2023-08-21T04:26:37;23.20;57.50
3504;DHT22;1766;53.490;10.174;2023-08-21T04:28:39;23.20;57.30
3504;DHT22;1766;53.490;10.174;2023-08-21T04:30:40;23.10;57.50
3504;DHT22;1766;53.490;10.174;2023-08-21T04:32:42;23.10;57.60
3504;DHT22;1766;53.490;10.174;2023-08-21T04:34:44;23.00;57.60
3504;DHT22;1766;53.490;10.174;2023-08-21T04:36:46;23.30;57.90
3504;DHT22;1766;53.490;10.174;2023-08-21T04:38:49;23.00;57.70
3504;DHT22;1766;53.490;10.174;2023-08-21T04:40:52;23.00;57.60
3504;DHT22;1766;53.490;10.174;2023-08-21T04:42:54;23.00;57.70
3504;DHT22;1766;53.490;10.174;2023-08-21T04:44:57;23.00;58.00
3504;DHT22;1766;53.490;10.174;2023-08-21T04:47:19;23.10;58.40
3504;DHT22;1766;53.490;10.174;2023-08-21T04:49:22;23.30;59.00
3504;DHT22;1766;53.490;10.174;2023-08-21T04:51:24;23.60;59.00
3504;DHT22;1766;53.490;10.174;2023-08-21T04:53:26;23.80;58.90
3504;DHT22;1766;53.490;10.174;2023-08-21T04:55:28;24.00;58.60
3504;DHT22;1766;53.490;10.174;2023-08-21T04:57:31;24.10;58.20
3504;DHT22;1766;53.490;10.174;2023-08-21T04:59:34;24.10;58.00
3504;DHT22;1766;53.490;10.174;2023-08-21T05:01:36;24.00;58.00
3504;DHT22;1766;53.490;10.174;2023-08-21T05:03:39;23.90;58.00
3504;DHT22;1766;53.490;10.174;2023-08-21T05:05:42;23.90;58.20
3504;DHT22;1766;53.490;10.174;2023-08-21T05:07:44;23.80;58.20
3504;DHT22;1766;53.490;10.174;2023-08-21T05:09:46;23.80;58.30
3504;DHT22;1766;53.490;10.174;2023-08-21T05:11:49;23.80;58.40
3504;DHT22;1766;53.490;10.174;2023-08-21T05:13:52;23.70;58.30
3504;DHT22;1766;53.490;10.174;2023-08-21T05:15:55;23.70;58.60
3504;DHT22;1766;53.490;10.174;2023-08-21T05:17:59;23.90;59.10
3504;DHT22;1766;53.490;10.174;2023-08-21T05:20:04;24.00;59.20
3504;DHT22;1766;53.490;10.174;2023-08-21T05:22:07;24.30;59.30
3504;DHT22;1766;53.490;10.174;2023-08-21T05:24:09;24.50;59.20
3504;DHT22;1766;53.490;10.174;2023-08-21T05:26:11;24.70;59.20
3504;DHT22;1766;53.490;10.174;2023-08-21T05:28:12;24.90;59.00
3504;DHT22;1766;53.490;10.174;2023-08-21T05:30:17;25.10;58.80
3504;DHT22;1766;53.490;10.174;2023-08-21T05:32:19;25.30;58.60
3504;DHT22;1766;53.490;10.174;2023-08-21T05:34:21;25.30;58.40
3504;DHT22;1766;53.490;10.174;2023-08-21T05:36:23;25.40;58.30
3504;DHT22;1766;53.490;10.174;2023-08-21T05:38:25;25.40;58.20
3504;DHT22;1766;53.490;10.174;2023-08-21T05:40:27;25.40;58.10
3504;DHT22;1766;53.490;10.174;2023-08-21T05:42:29;25.40;58.10
3504;DHT22;1766;53.490;10.174;2023-08-21T05:44:31;25.30;58.40
3504;DHT22;1766;53.490;10.174;2023-08-21T05:46:34;25.30;59.10
3504;DHT22;1766;53.490;10.174;2023-08-21T05:48:36;25.30;58.60
3504;DHT22;1766;53.490;10.174;2023-08-21T05:50:39;25.30;58.80
3504;DHT22;1766;53.490;10.174;2023-08-21T05:52:41;25.40;58.90
3504;DHT22;1766;53.490;10.174;2023-08-21T05:54:43;25.30;58.80
3504;DHT22;1766;53.490;10.174;2023-08-21T05:56:45;25.40;58.90
3504;DHT22;1766;53.490;10.174;2023-08-21T05:58:47;25.50;59.10
3504;DHT22;1766;53.490;10.174;2023-08-21T06:00:49;25.60;59.10
3504;DHT22;1766;53.490;10.174;2023-08-21T06:02:52;25.60;58.70
3504;DHT22;1766;53.490;10.174;2023-08-21T06:04:54;25.50;58.90
3504;DHT22;1766;53.490;10.174;2023-08-21T06:06:56;25.00;58.70
3504;DHT22;1766;53.490;10.174;2023-08-21T06:08:58;25.40;59.10
3504;DHT22;1766;53.490;10.174;2023-08-21T06:11:00;25.30;59.20
3504;DHT22;1766;53.490;10.174;2023-08-21T06:13:02;25.20;59.30
3504;DHT22;1766;53.490;10.174;2023-08-21T06:15:05;25.20;59.70
3504;DHT22;1766;53.490;10.174;2023-08-21T06:17:10;25.10;60.00
3504;DHT22;1766;53.490;10.174;2023-08-21T06:19:13;25.10;59.90
3504;DHT22;1766;53.490;10.174;2023-08-21T06:21:15;25.00;60.10
3504;DHT22;1766;53.490;10.174;2023-08-21T06:23:18;25.00;60.50
3504;DHT22;1766;53.490;10.174;2023-08-21T06:25:23;25.00;60.80
3504;DHT22;1766;53.490;10.174;2023-08-21T06:27:26;25.00;61.10
3504;DHT22;1766;53.490;10.174;2023-08-21T06:29:29;25.10;61.50
3504;DHT22;1766;53.490;10.174;2023-08-21T06:31:33;25.10;61.70
3504;DHT22;1766;53.490;10.174;2023-08-21T06:33:35;25.20;61.70
3504;DHT22;1766;53.490;10.174;2023-08-21T06:35:38;25.30;61.80
3504;DHT22;1766;53.490;10.174;2023-08-21T06:37:40;25.40;62.00
3504;DHT22;1766;53.490;10.174;2023-08-21T06:39:43;25.50;62.20
3504;DHT22;1766;53.490;10.174;2023-08-21T06:41:46;25.60;61.80
3504;DHT22;1766;53.490;10.174;2023-08-21T06:43:52;25.70;61.70
3504;DHT22;1766;53.490;10.174;2023-08-21T06:45:56;25.70;61.60
3504;DHT22;1766;53.490;10.174;2023-08-21T06:48:03;25.80;61.80
3504;DHT22;1766;53.490;10.174;2023-08-21T06:50:05;25.90;61.70
3504;DHT22;1766;53.490;10.174;2023-08-21T06:52:09;26.00;61.80
3504;DHT22;1766;53.490;10.174;2023-08-21T06:54:12;26.10;61.30
3504;DHT22;1766;53.490;10.174;2023-08-21T06:56:15;26.10;61.20
3504;DHT22;1766;53.490;10.174;2023-08-21T06:58:18;26.10;61.10
3504;DHT22;1766;53.490;10.174;2023-08-21T07:00:23;26.20;61.10
3504;DHT22;1766;53.490;10.174;2023-08-21T07:02:26;26.10;60.60
3504;DHT22;1766;53.490;10.174;2023-08-21T07:04:28;26.20;60.60
3504;DHT22;1766;53.490;10.174;2023-08-21T07:06:30;26.10;60.60
3504;DHT22;1766;53.490;10.174;2023-08-21T07:08:34;26.20;60.50
3504;DHT22;1766;53.490;10.174;2023-08-21T07:10:36;26.30;60.40
3504;DHT22;1766;53.490;10.174;2023-08-21T07:12:39;26.40;60.50
3504;DHT22;1766;53.490;10.174;2023-08-21T07:14:41;26.50;60.10
3504;DHT22;1766;53.490;10.174;2023-08-21T07:16:43;26.60;59.70
3504;DHT22;1766;53.490;10.174;2023-08-21T07:18:45;26.60;59.50
3504;DHT22;1766;53.490;10.174;2023-08-21T07:20:47;26.70;59.30
3504;DHT22;1766;53.490;10.174;2023-08-21T07:22:49;26.70;59.10
3504;DHT22;1766;53.490;10.174;2023-08-21T07:24:52;26.70;58.90
3504;DHT22;1766;53.490;10.174;2023-08-21T07:26:54;26.70;58.80
3504;DHT22;1766;53.490;10.174;2023-08-21T07:28:56;26.80;58.50
3504;DHT22;1766;53.490;10.174;2023-08-21T07:30:59;26.80;58.20
3504;DHT22;1766;53.490;10.174;2023-08-21T07:33:01;26.70;57.90
3504;DHT22;1766;53.490;10.174;2023-08-21T07:35:03;26.70;57.50
3504;DHT22;1766;53.490;10.174;2023-08-21T07:37:07;26.70;57.50
3504;DHT22;1766;53.490;10.174;2023-08-21T07:39:09;26.70;57.10
3504;DHT22;1766;53.490;10.174;2023-08-21T07:41:13;26.70;57.20
3504;DHT22;1766;53.490;10.174;2023-08-21T07:43:15;26.80;56.90
3504;DHT22;1766;53.490;10.174;2023-08-21T07:45:17;26.90;56.80
3504;DHT22;1766;53.490;10.174;2023-08-21T07:47:19;26.90;56.60
3504;DHT22;1766;53.490;10.174;2023-08-21T07:49:21;26.90;56.30
3504;DHT22;1766;53.490;10.174;2023-08-21T07:51:23;27.00;56.10
3504;DHT22;1766;53.490;10.174;2023-08-21T07:53:25;27.00;56.00
3504;DHT22;1766;53.490;10.174;2023-08-21T07:55:27;27.00;56.00
3504;DHT22;1766;53.490;10.174;2023-08-21T07:57:31;27.10;55.70
3504;DHT22;1766;53.490;10.174;2023-08-21T07:59:33;27.10;55.40
3504;DHT22;1766;53.490;10.174;2023-08-21T08:01:34;27.10;55.20
3504;DHT22;1766;53.490;10.174;2023-08-21T08:03:36;27.20;55.10
3504;DHT22;1766;53.490;10.174;2023-08-21T08:05:38;27.20;54.80
3504;DHT22;1766;53.490;10.174;2023-08-21T08:07:40;27.20;54.30
3504;DHT22;1766;53.490;10.174;2023-08-21T08:09:43;27.20;53.80
3504;DHT22;1766;53.490;10.174;2023-08-21T08:11:45;27.20;53.80
3504;DHT22;1766;53.490;10.174;2023-08-21T08:13:48;27.20;53.50
3504;DHT22;1766;53.490;10.174;2023-08-21T08:15:50;27.20;53.30
3504;DHT22;1766;53.490;10.174;2023-08-21T08:17:54;27.20;53.00
3504;DHT22;1766;53.490;10.174;2023-08-21T08:19:56;27.30;53.20
3504;DHT22;1766;53.490;10.174;2023-08-21T08:21:58;27.30;53.00
3504;DHT22;1766;53.490;10.174;2023-08-21T08:24:00;27.30;52.70
3504;DHT22;1766;53.490;10.174;2023-08-21T08:26:03;27.40;52.60
3504;DHT22;1766;53.490;10.174;2023-08-21T08:28:05;27.40;52.40
3504;DHT22;1766;53.490;10.174;2023-08-21T08:30:09;27.50;52.20
3504;DHT22;1766;53.490;10.174;2023-08-21T08:32:12;27.60;52.30
3504;DHT22;1766;53.490;10.174;2023-08-21T08:34:14;27.60;51.90
3504;DHT22;1766;53.490;10.174;2023-08-21T08:36:18;27.60;52.00
3504;DHT22;1766;53.490;10.174;2023-08-21T08:38:21;27.70;51.90
3504;DHT22;1766;53.490;10.174;2023-08-21T08:40:22;27.70;52.00
3504;DHT22;1766;53.490;10.174;2023-08-21T08:42:24;27.80;52.00
3504;DHT22;1766;53.490;10.174;2023-08-21T08:44:27;27.80;51.70
3504;DHT22;1766;53.490;10.174;2023-08-21T08:46:30;27.90;51.90
3504;DHT22;1766;53.490;10.174;2023-08-21T08:48:33;28.00;51.10
3504;DHT22;1766;53.490;10.174;2023-08-21T08:50:36;28.00;50.80
3504;DHT22;1766;53.490;10.174;2023-08-21T08:52:39;28.00;50.70
3504;DHT22;1766;53.490;10.174;2023-08-21T08:54:41;28.10;50.10
3504;DHT22;1766;53.490;10.174;2023-08-21T08:56:43;28.00;49.70
3504;DHT22;1766;53.490;10.174;2023-08-21T08:58:46;28.20;50.20
3504;DHT22;1766;53.490;10.174;2023-08-21T09:00:48;28.20;49.40
3504;DHT22;1766;53.490;10.174;2023-08-21T09:02:52;28.20;49.30
3504;DHT22;1766;53.490;10.174;2023-08-21T09:04:54;28.30;49.60
3504;DHT22;1766;53.490;10.174;2023-08-21T09:07:06;28.40;49.00
3504;DHT22;1766;53.490;10.174;2023-08-21T09:09:08;28.40;48.60
3504;DHT22;1766;53.490;10.174;2023-08-21T09:11:16;28.50;48.30
3504;DHT22;1766;53.490;10.174;2023-08-21T09:13:19;28.50;48.20
3504;DHT22;1766;53.490;10.174;2023-08-21T09:15:27;28.60;47.90
3504;DHT22;1766;53.490;10.174;2023-08-21T09:17:30;28.70;48.00
3504;DHT22;1766;53.490;10.174;2023-08-21T09:19:33;28.70;47.10
3504;DHT22;1766;53.490;10.174;2023-08-21T09:21:36;28.70;47.10
3504;DHT22;1766;53.490;10.174;2023-08-21T09:23:40;28.70;46.90
3504;DHT22;1766;53.490;10.174;2023-08-21T09:25:47;28.70;46.70
3504;DHT22;1766;53.490;10.174;2023-08-21T09:27:51;28.70;46.60
3504;DHT22;1766;53.490;10.174;2023-08-21T09:29:56;28.80;46.50
3504;DHT22;1766;53.490;10.174;2023-08-21T09:31:59;28.80;46.40
3504;DHT22;1766;53.490;10.174;2023-08-21T09:34:03;29.00;46.30
3504;DHT22;1766;53.490;10.174;2023-08-21T09:36:09;29.10;46.20
3504;DHT22;1766;53.490;10.174;2023-08-21T09:38:11;29.00;45.50
3504;DHT22;1766;53.490;10.174;2023-08-21T09:40:15;29.00;45.40
3504;DHT22;1766;53.490;10.174;2023-08-21T09:42:18;29.00;45.50
3504;DHT22;1766;53.490;10.174;2023-08-21T09:44:21;29.10;45.40
3504;DHT22;1766;53.490;10.174;2023-08-21T09:46:26;29.10;45.70
3504;DHT22;1766;53.490;10.174;2023-08-21T09:48:29;29.00;45.50
3504;DHT22;1766;53.490;10.174;2023-08-21T09:50:32;29.20;45.10
3504;DHT22;1766;53.490;10.174;2023-08-21T09:52:35;29.20;45.20
3504;DHT22;1766;53.490;10.174;2023-08-21T09:54:38;29.30;44.90
3504;DHT22;1766;53.490;10.174;2023-08-21T09:56:41;29.40;44.90
3504;DHT22;1766;53.490;10.174;2023-08-21T09:58:43;29.50;44.90
3504;DHT22;1766;53.490;10.174;2023-08-21T10:00:48;29.60;44.70
3504;DHT22;1766;53.490;10.174;2023-08-21T10:02:52;29.70;44.80
3504;DHT22;1766;53.490;10.174;2023-08-21T10:04:54;29.80;44.80
3504;DHT22;1766;53.490;10.174;2023-08-21T10:06:57;29.90;44.60
3504;DHT22;1766;53.490;10.174;2023-08-21T10:09:01;29.90;44.30
3504;DHT22;1766;53.490;10.174;2023-08-21T10:11:04;30.00;44.20
3504;DHT22;1766;53.490;10.174;2023-08-21T10:13:07;30.10;43.90
3504;DHT22;1766;53.490;10.174;2023-08-21T10:15:10;30.10;43.60
3504;DHT22;1766;53.490;10.174;2023-08-21T10:17:12;29.50;43.00
3504;DHT22;1766;53.490;10.174;2023-08-21T10:19:15;30.20;43.20
3504;DHT22;1766;53.490;10.174;2023-08-21T10:21:21;30.20;43.20
3504;DHT22;1766;53.490;10.174;2023-08-21T10:23:27;30.20;43.10
3504;DHT22;1766;53.490;10.174;2023-08-21T10:25:31;30.30;43.00
3504;DHT22;1766;53.490;10.174;2023-08-21T10:27:34;30.60;42.50
3504;DHT22;1766;53.490;10.174;2023-08-21T10:29:35;30.30;42.20
3504;DHT22;1766;53.490;10.174;2023-08-21T10:31:38;30.30;42.00
3504;DHT22;1766;53.490;10.174;2023-08-21T10:33:46;30.30;41.80
3504;DHT22;1766;53.490;10.174;2023-08-21T10:35:47;30.40;41.90
3504;DHT22;1766;53.490;10.174;2023-08-21T10:38:05;30.50;41.60
3504;DHT22;1766;53.490;10.174;2023-08-21T10:40:12;30.50;41.20
3504;DHT22;1766;53.490;10.174;2023-08-21T10:42:40;30.60;41.00
3504;DHT22;1766;53.490;10.174;2023-08-21T10:44:52;30.60;40.80
3504;DHT22;1766;53.490;10.174;2023-08-21T10:47:13;30.70;41.00
3504;DHT22;1766;53.490;10.174;2023-08-21T10:49:17;30.80;41.20
3504;DHT22;1766;53.490;10.174;2023-08-21T10:51:19;30.80;40.80
3504;DHT22;1766;53.490;10.174;2023-08-21T10:53:22;30.90;40.10
3504;DHT22;1766;53.490;10.174;2023-08-21T10:55:24;31.00;40.20
3504;DHT22;1766;53.490;10.174;2023-08-21T10:57:28;31.00;39.90
3504;DHT22;1766;53.490;10.174;2023-08-21T10:59:32;31.10;39.70
3504;DHT22;1766;53.490;10.174;2023-08-21T11:01:43;31.20;39.30
3504;DHT22;1766;53.490;10.174;2023-08-21T11:03:46;31.30;39.10
3504;DHT22;1766;53.490;10.174;2023-08-21T11:06:07;31.30;38.60
3504;DHT22;1766;53.490;10.174;2023-08-21T11:08:10;31.30;38.10
3504;DHT22;1766;53.490;10.174;2023-08-21T11:10:13;31.30;38.30
3504;DHT22;1766;53.490;10.174;2023-08-21T11:12:19;31.30;38.00
3504;DHT22;1766;53.490;10.174;2023-08-21T11:14:25;31.20;38.30
3504;DHT22;1766;53.490;10.174;2023-08-21T11:16:28;31.20;38.50
3504;DHT22;1766;53.490;10.174;2023-08-21T11:18:32;31.30;38.30
3504;DHT22;1766;53.490;10.174;2023-08-21T11:20:35;31.40;38.30
3504;DHT22;1766;53.490;10.174;2023-08-21T11:22:37;31.50;38.40
3504;DHT22;1766;53.490;10.174;2023-08-21T11:24:41;31.60;38.30
3504;DHT22;1766;53.490;10.174;2023-08-21T11:26:45;31.60;38.30
3504;DHT22;1766;53.490;10.174;2023-08-21T11:28:47;31.70;38.10
3504;DHT22;1766;53.490;10.174;2023-08-21T11:30:50;31.80;38.00
3504;DHT22;1766;53.490;10.174;2023-08-21T11:33:06;31.90;37.80
3504;DHT22;1766;53.490;10.174;2023-08-21T11:35:08;32.00;37.50
3504;DHT22;1766;53.490;10.174;2023-08-21T11:37:10;32.00;37.00
3504;DHT22;1766;53.490;10.174;2023-08-21T11:39:12;32.00;36.80
3504;DHT22;1766;53.490;10.174;2023-08-21T11:41:13;32.00;36.90
3504;DHT22;1766;53.490;10.174;2023-08-21T11:43:15;31.90;36.40
3504;DHT22;1766;53.490;10.174;2023-08-21T11:45:20;32.00;36.50
3504;DHT22;1766;53.490;10.174;2023-08-21T11:47:23;31.90;36.40
3504;DHT22;1766;53.490;10.174;2023-08-21T11:49:26;32.00;36.20
3504;DHT22;1766;53.490;10.174;2023-08-21T11:51:28;32.60;36.40
3504;DHT22;1766;53.490;10.174;2023-08-21T11:53:32;32.00;36.00
3504;DHT22;1766;53.490;10.174;2023-08-21T11:55:36;32.10;36.30
3504;DHT22;1766;53.490;10.174;2023-08-21T11:57:47;32.20;36.10
3504;DHT22;1766;53.490;10.174;2023-08-21T11:59:50;32.30;36.10
3504;DHT22;1766;53.490;10.174;2023-08-21T12:01:52;32.40;35.90
3504;DHT22;1766;53.490;10.174;2023-08-21T12:03:53;32.50;35.40
3504;DHT22;1766;53.490;10.174;2023-08-21T12:05:58;32.40;34.90
3504;DHT22;1766;53.490;10.174;2023-08-21T12:08:01;32.30;34.80
3504;DHT22;1766;53.490;10.174;2023-08-21T12:10:03;32.20;34.80
3504;DHT22;1766;53.490;10.174;2023-08-21T12:12:06;32.20;35.00
3504;DHT22;1766;53.490;10.174;2023-08-21T12:14:09;32.30;34.80
3504;DHT22;1766;53.490;10.174;2023-08-21T12:16:10;32.30;34.90
3504;DHT22;1766;53.490;10.174;2023-08-21T12:18:12;32.50;34.70
3504;DHT22;1766;53.490;10.174;2023-08-21T12:20:14;32.60;34.70
3504;DHT22;1766;53.490;10.174;2023-08-21T12:22:17;32.80;34.30
3504;DHT22;1766;53.490;10.174;2023-08-21T12:24:19;33.00;34.00
3504;DHT22;1766;53.490;10.174;2023-08-21T12:26:22;33.10;34.00
3504;DHT22;1766;53.490;10.174;2023-08-21T12:28:24;33.20;33.70
3504;DHT22;1766;53.490;10.174;2023-08-21T12:30:26;33.30;33.60
3504;DHT22;1766;53.490;10.174;2023-08-21T12:32:28;33.30;33.40
3504;DHT22;1766;53.490;10.174;2023-08-21T12:34:29;33.30;33.00
3504;DHT22;1766;53.490;10.174;2023-08-21T12:36:33;33.20;32.90
3504;DHT22;1766;53.490;10.174;2023-08-21T12:38:37;33.20;32.80
3504;DHT22;1766;53.490;10.174;2023-08-21T12:40:39;33.30;32.20
3504;DHT22;1766;53.490;10.174;2023-08-21T12:42:41;33.40;32.30
3504;DHT22;1766;53.490;10.174;2023-08-21T12:44:43;33.40;32.30
3504;DHT22;1766;53.490;10.174;2023-08-21T12:46:45;33.40;32.40
3504;DHT22;1766;53.490;10.174;2023-08-21T12:48:47;33.50;32.50
3504;DHT22;1766;53.490;10.174;2023-08-21T12:50:49;33.50;32.70
3504;DHT22;1766;53.490;10.174;2023-08-21T12:52:51;33.50;32.40
3504;DHT22;1766;53.490;10.174;2023-08-21T12:54:55;33.40;32.00
3504;DHT22;1766;53.490;10.174;2023-08-21T12:56:57;33.10;32.10
3504;DHT22;1766;53.490;10.174;2023-08-21T12:58:59;33.00;32.20
3504;DHT22;1766;53.490;10.174;2023-08-21T13:01:01;32.80;32.40
3504;DHT22;1766;53.490;10.174;2023-08-21T13:03:04;32.80;32.40
3504;DHT22;1766;53.490;10.174;2023-08-21T13:05:06;32.80;32.20
3504;DHT22;1766;53.490;10.174;2023-08-21T13:07:08;32.70;32.20
3504;DHT22;1766;53.490;10.174;2023-08-21T13:09:10;32.80;32.20
3504;DHT22;1766;53.490;10.174;2023-08-21T13:11:15;32.80;32.10